Time;durP1;ratioP1;P1;durP2;ratioP2;P2;SDS_P1;SDS_P2;PMS_P1;PMS_P2;Temp;Humidity;BMP_temperature;BMP_pressure;BME280_temperature;BME280_humidity;BME280_pressure;Samples;Min_cycle;Max_cycle;Signal;HPM_P1;HPM_P2
2022/11/24 00:02:23;;;;;;;17.67;6.82;;;7.60;99.90;;;;;;5051765;28;20041;-64
2022/11/24 00:04:49;;;;;;;22.73;7.40;;;7.60;99.90;;;;;;5055741;28;20463;-64
2022/11/24 00:07:14;;;;;;;19.10;6.75;;;7.60;99.90;;;;;;5050713;28;20116;-64
2022/11/24 00:09:40;;;;;;;23.85;7.18;;;7.60;99.90;;;;;;5052090;28;20037;-63
2022/11/24 00:12:06;;;;;;;19.55;7.18;;;7.50;99.90;;;;;;5051290;28;20032;-63
2022/11/24 00:14:31;;;;;;;16.08;6.85;;;7.50;99.90;;;;;;5051376;28;20376;-64
2022/11/24 00:16:57;;;;;;;18.83;6.82;;;7.50;99.90;;;;;;5059254;28;20033;-64
2022/11/24 00:19:23;;;;;;;16.98;6.50;;;7.50;99.90;;;;;;5049967;28;20087;-63
2022/11/24 00:21:48;;;;;;;12.07;6.22;;;7.50;99.90;;;;;;5049497;28;20059;-65
2022/11/24 00:24:14;;;;;;;16.70;5.88;;;7.50;99.90;;;;;;5046823;28;20422;-64
2022/11/24 00:26:40;;;;;;;17.55;6.05;;;7.50;99.90;;;;;;5052364;28;20048;-64
2022/11/24 00:29:08;;;;;;;21.02;7.07;;;7.40;99.90;;;;;;5048400;28;20043;-63
2022/11/24 00:31:41;;;;;;;18.75;6.20;;;7.40;99.90;;;;;;5054385;28;20501;-64
2022/11/24 00:34:10;;;;;;;16.77;6.47;;;7.40;99.90;;;;;;5051636;28;20055;-64
2022/11/24 00:36:36;;;;;;;16.00;6.05;;;7.40;99.90;;;;;;5049823;28;20056;-64
2022/11/24 00:39:05;;;;;;;18.00;7.20;;;7.40;99.90;;;;;;5034457;28;20608;-64
2022/11/24 00:41:31;;;;;;;16.08;6.50;;;7.40;99.90;;;;;;5052281;28;20047;-64
2022/11/24 00:43:57;;;;;;;19.67;5.82;;;7.30;99.90;;;;;;5058510;28;20490;-63
2022/11/24 00:46:24;;;;;;;19.42;6.00;;;7.30;99.90;;;;;;5049080;28;20045;-64
2022/11/24 00:48:50;;;;;;;15.02;5.80;;;7.30;99.90;;;;;;5048768;28;20079;-64
2022/11/24 00:51:17;;;;;;;16.67;5.75;;;7.30;99.90;;;;;;5039634;28;20071;-64
2022/11/24 00:53:42;;;;;;;15.40;6.47;;;7.30;99.90;;;;;;5052451;28;20037;-64
2022/11/24 00:56:09;;;;;;;22.42;6.45;;;7.20;99.90;;;;;;5051067;28;20063;-63
2022/11/24 00:58:35;;;;;;;17.80;6.13;;;7.20;99.90;;;;;;5035924;28;20037;-63
2022/11/24 01:01:03;;;;;;;16.63;5.82;;;7.20;99.90;;;;;;5039662;28;20040;-64
2022/11/24 01:03:29;;;;;;;18.08;6.00;;;7.20;99.90;;;;;;5033898;28;20541;-64
2022/11/24 01:05:55;;;;;;;20.05;5.65;;;7.20;99.90;;;;;;5051145;28;20068;-64
2022/11/24 01:08:20;;;;;;;19.95;5.80;;;7.20;99.90;;;;;;5050336;28;20025;-64
2022/11/24 01:10:46;;;;;;;18.23;5.82;;;7.20;99.90;;;;;;5050879;28;20041;-64
2022/11/24 01:13:12;;;;;;;19.45;5.55;;;7.20;99.90;;;;;;5050577;28;20040;-64
2022/11/24 01:15:38;;;;;;;22.98;5.93;;;7.20;99.90;;;;;;5049161;28;20525;-64
2022/11/24 01:18:05;;;;;;;22.33;5.85;;;7.20;99.90;;;;;;5029074;28;20506;-64
2022/11/24 01:20:31;;;;;;;19.52;5.35;;;7.20;99.90;;;;;;5047289;28;20041;-64
2022/11/24 01:22:57;;;;;;;22.50;5.85;;;7.20;99.90;;;;;;5041435;28;20037;-64
2022/11/24 01:25:22;;;;;;;16.85;5.93;;;7.10;99.90;;;;;;5058665;28;20036;-64
2022/11/24 01:27:48;;;;;;;18.77;5.50;;;7.10;99.90;;;;;;5064015;28;20033;-64
2022/11/24 01:30:14;;;;;;;20.10;5.68;;;7.10;99.90;;;;;;5047778;28;20513;-64
2022/11/24 01:32:39;;;;;;;21.17;5.45;;;7.10;99.90;;;;;;5048759;28;20115;-64
2022/11/24 01:35:06;;;;;;;22.20;6.15;;;7.10;99.90;;;;;;5049990;28;20501;-64
2022/11/24 01:37:32;;;;;;;19.10;5.15;;;7.10;99.90;;;;;;5050337;28;20037;-64
2022/11/24 01:39:57;;;;;;;16.00;5.38;;;7.10;99.90;;;;;;5057968;28;20095;-64
2022/11/24 01:42:23;;;;;;;23.77;5.57;;;7.10;99.90;;;;;;5040433;28;20044;-64
2022/11/24 01:45:41;;;;;;;19.15;5.47;;;7.10;99.90;;;;;;5049250;28;20044;-64
2022/11/24 01:48:22;;;;;;;22.65;5.82;;;7.10;99.90;;;;;;4999531;28;20410;-64
2022/11/24 01:50:54;;;;;;;13.80;4.72;;;7.10;99.90;;;;;;5031740;28;20040;-64
2022/11/24 01:53:22;;;;;;;19.70;5.00;;;7.10;99.90;;;;;;5051144;28;20037;-64
2022/11/24 01:55:48;;;;;;;21.08;5.10;;;7.10;99.90;;;;;;5049175;28;20068;-64
2022/11/24 01:58:19;;;;;;;17.38;5.55;;;7.10;99.90;;;;;;5030720;28;20398;-63
2022/11/24 02:00:45;;;;;;;20.27;5.82;;;7.10;99.90;;;;;;5023651;28;20052;-64
2022/11/24 02:03:19;;;;;;;22.80;5.60;;;7.10;99.90;;;;;;5042751;28;20033;-64
2022/11/24 02:05:50;;;;;;;15.80;4.93;;;7.10;99.90;;;;;;5048587;28;20123;-64
2022/11/24 02:08:45;;;;;;;17.63;4.70;;;7.10;99.90;;;;;;5043781;28;20461;-64
2022/11/24 02:11:11;;;;;;;17.23;5.07;;;7.00;99.90;;;;;;5041435;28;20040;-64
2022/11/24 02:13:39;;;;;;;18.92;5.15;;;7.00;99.90;;;;;;5051669;28;20445;-64
2022/11/24 02:16:09;;;;;;;21.77;4.95;;;7.00;99.90;;;;;;5057738;28;20055;-64
2022/11/24 02:18:37;;;;;;;20.88;5.63;;;7.00;99.90;;;;;;5053446;28;20494;-64
2022/11/24 02:21:03;;;;;;;20.00;5.35;;;7.00;99.90;;;;;;5053081;28;20033;-64
2022/11/24 02:23:53;;;;;;;17.55;4.78;;;7.00;99.90;;;;;;5051229;28;20448;-64
2022/11/24 02:26:37;;;;;;;18.90;4.80;;;7.00;99.90;;;;;;5061816;28;20094;-64
2022/11/24 02:29:03;;;;;;;23.05;4.97;;;7.00;99.90;;;;;;5054086;28;20036;-64
2022/11/24 02:31:29;;;;;;;19.30;5.45;;;7.00;99.90;;;;;;5052289;28;20037;-64
2022/11/24 02:33:55;;;;;;;15.60;4.57;;;7.00;99.90;;;;;;5049522;28;20030;-64
2022/11/24 02:36:21;;;;;;;20.67;4.85;;;7.00;99.90;;;;;;5051686;28;20041;-63
2022/11/24 02:38:46;;;;;;;20.83;5.25;;;6.90;99.90;;;;;;5051437;28;20048;-64
2022/11/24 02:41:18;;;;;;;20.50;5.00;;;7.00;99.90;;;;;;5055295;28;20040;-64
2022/11/24 02:43:51;;;;;;;16.25;4.45;;;7.00;99.90;;;;;;5051890;28;20044;-64
2022/11/24 02:46:16;;;;;;;21.85;4.47;;;7.00;99.90;;;;;;5053383;28;20124;-63
2022/11/24 02:48:42;;;;;;;16.05;4.18;;;6.90;99.90;;;;;;5051228;28;20466;-64
2022/11/24 02:51:08;;;;;;;17.35;4.55;;;7.00;99.90;;;;;;5052652;28;20029;-64
2022/11/24 02:53:34;;;;;;;21.25;5.15;;;7.00;99.90;;;;;;5049513;28;20033;-64
2022/11/24 02:55:59;;;;;;;24.58;5.75;;;7.00;99.90;;;;;;5060253;28;20125;-64
2022/11/24 02:58:25;;;;;;;20.67;5.05;;;6.90;99.90;;;;;;5049189;28;20121;-64
2022/11/24 03:00:53;;;;;;;21.20;5.60;;;6.90;99.90;;;;;;5050960;28;20409;-64
2022/11/24 03:03:20;;;;;;;19.92;5.20;;;7.00;99.90;;;;;;5050509;28;20041;-64
2022/11/24 03:05:45;;;;;;;21.92;4.80;;;7.00;99.90;;;;;;5048012;28;20045;-63
2022/11/24 03:08:11;;;;;;;23.98;5.15;;;7.00;99.90;;;;;;5051897;28;20040;-64
2022/11/24 03:10:38;;;;;;;18.58;4.38;;;7.00;99.90;;;;;;5062740;28;20037;-64
2022/11/24 03:13:03;;;;;;;16.92;4.55;;;7.00;99.90;;;;;;5051001;28;20036;-64
2022/11/24 03:15:29;;;;;;;20.17;4.32;;;7.10;99.90;;;;;;5051489;28;20029;-64
2022/11/24 03:17:57;;;;;;;17.05;4.50;;;7.10;99.90;;;;;;5052509;28;20111;-64
2022/11/24 03:20:24;;;;;;;17.88;5.00;;;7.10;99.90;;;;;;5050775;28;20044;-64
2022/11/24 03:22:49;;;;;;;16.05;4.20;;;7.20;99.90;;;;;;5034718;28;20033;-64
2022/11/24 03:25:15;;;;;;;18.60;4.22;;;7.20;99.90;;;;;;5059694;28;20166;-64
2022/11/24 03:27:41;;;;;;;17.17;3.83;;;7.30;99.90;;;;;;5041843;28;20063;-64
2022/11/24 03:30:07;;;;;;;18.10;3.67;;;7.30;99.90;;;;;;5052261;28;20406;-64
2022/11/24 03:32:33;;;;;;;18.45;3.55;;;7.30;99.90;;;;;;5054339;28;20384;-63
2022/11/24 03:34:59;;;;;;;20.95;4.47;;;7.40;99.90;;;;;;5050275;28;20036;-64
2022/11/24 03:37:24;;;;;;;19.50;3.92;;;7.40;99.90;;;;;;5052346;28;20039;-64
2022/11/24 03:39:50;;;;;;;18.63;3.50;;;7.40;99.90;;;;;;5051668;28;20033;-64
2022/11/24 03:42:16;;;;;;;20.95;4.25;;;7.40;99.90;;;;;;5044462;28;20044;-64
2022/11/24 03:44:41;;;;;;;17.33;4.13;;;7.40;99.90;;;;;;5057687;28;20037;-64
2022/11/24 03:47:09;;;;;;;17.67;3.25;;;7.40;99.90;;;;;;5032515;28;20090;-64
2022/11/24 03:49:35;;;;;;;12.40;3.78;;;7.40;99.90;;;;;;5010643;28;20040;-64
2022/11/24 03:52:01;;;;;;;18.77;3.25;;;7.40;99.90;;;;;;5049331;28;20056;-63
2022/11/24 03:54:26;;;;;;;15.48;3.60;;;7.40;99.90;;;;;;5050400;28;20069;-64
2022/11/24 03:56:52;;;;;;;15.48;3.60;;;7.40;99.90;;;;;;5033543;28;20509;-64
2022/11/24 03:59:18;;;;;;;19.13;3.67;;;7.40;99.90;;;;;;5051448;28;20040;-64
2022/11/24 04:01:44;;;;;;;17.15;3.80;;;7.40;99.90;;;;;;5050776;28;20441;-64
2022/11/24 04:04:11;;;;;;;19.52;3.78;;;7.40;99.90;;;;;;5056934;28;20067;-63
2022/11/24 04:06:37;;;;;;;17.73;3.15;;;7.30;99.90;;;;;;5033816;28;20044;-63
2022/11/24 04:09:03;;;;;;;23.35;3.63;;;7.30;99.90;;;;;;5072176;22;20131;-68
2022/11/24 04:14:13;;;;;;;17.70;4.07;;;7.30;99.90;;;;;;5067002;28;20064;-68
2022/11/24 04:16:38;;;;;;;15.20;3.72;;;7.30;99.90;;;;;;5051917;28;20514;-67
2022/11/24 04:19:05;;;;;;;15.43;3.08;;;7.30;99.90;;;;;;5051604;28;20079;-67
2022/11/24 04:21:30;;;;;;;18.95;3.47;;;7.30;99.90;;;;;;5071805;28;20082;-67
2022/11/24 04:23:56;;;;;;;21.30;3.55;;;7.20;99.90;;;;;;5066507;28;20041;-68
2022/11/24 04:26:22;;;;;;;16.92;3.65;;;7.20;99.90;;;;;;5064493;28;20569;-67
2022/11/24 04:28:47;;;;;;;13.02;3.47;;;7.30;99.90;;;;;;5070327;28;20044;-67
2022/11/24 04:31:13;;;;;;;20.90;4.00;;;7.20;99.90;;;;;;5071304;28;20037;-67
2022/11/24 04:33:39;;;;;;;16.98;3.78;;;7.20;99.90;;;;;;5072373;28;20547;-67
2022/11/24 04:36:05;;;;;;;13.48;3.63;;;7.30;99.90;;;;;;5073744;28;20094;-68
2022/11/24 04:38:30;;;;;;;16.10;3.03;;;7.30;99.90;;;;;;5070174;28;20040;-67
2022/11/24 04:41:01;;;;;;;16.60;3.65;;;7.30;99.90;;;;;;5070423;28;20145;-67
2022/11/24 04:43:26;;;;;;;23.90;4.32;;;7.30;99.90;;;;;;5070166;28;20075;-67
2022/11/24 04:45:52;;;;;;;17.35;3.08;;;7.30;99.90;;;;;;5062019;28;20068;-67
2022/11/24 04:48:17;;;;;;;17.77;3.05;;;7.30;99.90;;;;;;5069950;28;20486;-67
2022/11/24 04:50:43;;;;;;;16.20;3.42;;;7.30;99.90;;;;;;5069568;28;20031;-67
2022/11/24 04:53:10;;;;;;;19.00;4.20;;;7.30;99.90;;;;;;5068749;28;20075;-68
2022/11/24 04:55:37;;;;;;;16.75;3.95;;;7.30;99.90;;;;;;5067568;28;20386;-67
2022/11/24 04:58:05;;;;;;;17.20;3.63;;;7.40;99.90;;;;;;5071295;28;20124;-67
2022/11/24 05:00:31;;;;;;;18.38;3.58;;;7.40;99.90;;;;;;5047412;28;20486;-67
2022/11/24 05:02:56;;;;;;;11.82;3.50;;;7.40;99.90;;;;;;5049526;28;20063;-67
2022/11/24 05:05:22;;;;;;;14.30;3.00;;;7.40;99.90;;;;;;5060068;28;20037;-67
2022/11/24 05:07:47;;;;;;;20.92;3.65;;;7.40;99.90;;;;;;5051995;28;20028;-67
2022/11/24 05:12:58;;;;;;;15.23;2.97;;;7.40;99.90;;;;;;5069147;28;20033;-67
2022/11/24 05:15:24;;;;;;;16.30;3.55;;;7.40;99.90;;;;;;5056165;28;20120;-67
2022/11/24 05:17:49;;;;;;;14.57;3.53;;;7.40;99.90;;;;;;5069703;28;20119;-67
2022/11/24 05:20:15;;;;;;;14.40;3.38;;;7.40;99.90;;;;;;5064009;28;20071;-67
2022/11/24 05:22:41;;;;;;;19.40;3.72;;;7.40;99.90;;;;;;5065553;28;20127;-67
2022/11/24 05:25:06;;;;;;;16.08;3.45;;;7.40;99.90;;;;;;5065312;28;20115;-67
2022/11/24 05:27:32;;;;;;;16.67;3.40;;;7.40;99.90;;;;;;5052329;28;20041;-67
2022/11/24 05:29:58;;;;;;;18.02;3.30;;;7.40;99.90;;;;;;5068889;28;20040;-67
2022/11/24 05:32:23;;;;;;;15.40;3.47;;;7.30;99.90;;;;;;5066292;28;20706;-67
2022/11/24 05:34:49;;;;;;;15.32;3.65;;;7.30;99.90;;;;;;5066438;28;20391;-67
2022/11/24 05:37:15;;;;;;;20.67;3.33;;;7.30;99.90;;;;;;5068944;28;20037;-67
2022/11/24 05:39:41;;;;;;;20.48;4.03;;;7.30;99.90;;;;;;5069309;28;20033;-67
2022/11/24 05:44:52;;;;;;;21.17;3.80;;;7.20;99.90;;;;;;5069319;28;20162;-67
2022/11/24 05:47:18;;;;;;;12.38;3.10;;;7.20;99.90;;;;;;5078904;28;20044;-67
2022/11/24 05:49:43;;;;;;;18.55;3.38;;;7.20;99.90;;;;;;5073231;28;20117;-67
2022/11/24 05:52:09;;;;;;;17.42;3.28;;;7.10;99.90;;;;;;5068242;28;20095;-67
2022/11/24 05:54:35;;;;;;;16.08;3.80;;;7.10;99.90;;;;;;5066921;28;20422;-67
2022/11/24 05:57:01;;;;;;;19.15;3.50;;;7.10;99.90;;;;;;5073753;28;20044;-67
2022/11/24 05:59:26;;;;;;;16.40;3.60;;;7.10;99.90;;;;;;5072345;28;20036;-68
2022/11/24 06:01:52;;;;;;;14.98;3.67;;;7.00;99.90;;;;;;5077279;28;20443;-67
2022/11/24 06:04:17;;;;;;;19.42;3.80;;;7.00;99.90;;;;;;5070202;28;20041;-67
2022/11/24 06:06:44;;;;;;;12.18;3.20;;;7.00;99.90;;;;;;5063589;28;20052;-67
2022/11/24 06:09:10;;;;;;;13.43;3.53;;;7.00;99.90;;;;;;5068926;28;20036;-68
2022/11/24 06:11:35;;;;;;;19.75;3.13;;;7.00;99.90;;;;;;5078284;28;20028;-67
2022/11/24 06:14:01;;;;;;;16.73;3.15;;;6.90;99.90;;;;;;5076086;28;20049;-68
2022/11/24 06:16:27;;;;;;;12.30;3.22;;;6.90;99.90;;;;;;5083864;28;20493;-67
2022/11/24 06:18:52;;;;;;;8.32;2.90;;;6.80;99.90;;;;;;5074524;28;20081;-67
2022/11/24 06:21:18;;;;;;;14.77;2.90;;;6.80;99.90;;;;;;5064817;28;20041;-67
2022/11/24 06:23:47;;;;;;;16.20;3.70;;;6.80;99.90;;;;;;5065909;28;20044;-67
2022/11/24 06:26:12;;;;;;;15.00;3.30;;;6.80;99.90;;;;;;5081122;28;20040;-67
2022/11/24 06:28:38;;;;;;;16.23;3.10;;;6.80;99.90;;;;;;5071302;28;20036;-67
2022/11/24 06:31:05;;;;;;;20.30;3.63;;;6.80;99.90;;;;;;5053236;28;20120;-67
2022/11/24 06:33:32;;;;;;;19.42;3.25;;;6.80;99.90;;;;;;5058243;28;20044;-67
2022/11/24 06:36:01;;;;;;;20.80;3.45;;;6.80;99.90;;;;;;5069297;28;20115;-67
2022/11/24 06:38:26;;;;;;;22.60;3.70;;;6.80;99.90;;;;;;5074746;28;20032;-67
2022/11/24 06:41:03;;;;;;;16.55;3.63;;;6.80;99.90;;;;;;5077872;28;20406;-67
2022/11/24 06:43:29;;;;;;;16.08;3.47;;;6.80;99.90;;;;;;5068897;28;20557;-67
2022/11/24 06:45:56;;;;;;;11.48;3.00;;;6.80;99.90;;;;;;5067010;28;20040;-67
2022/11/24 06:48:22;;;;;;;18.17;4.07;;;6.80;99.90;;;;;;5073735;28;20554;-67
2022/11/24 06:50:48;;;;;;;17.63;3.92;;;6.80;99.90;;;;;;5073941;28;20093;-67
2022/11/24 06:53:14;;;;;;;17.10;4.13;;;6.80;99.90;;;;;;5071263;28;20032;-67
2022/11/24 06:55:40;;;;;;;14.90;3.88;;;6.90;99.90;;;;;;5072925;28;20509;-67
2022/11/24 06:58:06;;;;;;;21.10;4.15;;;6.90;99.90;;;;;;5068683;28;20033;-67
2022/11/24 07:00:31;;;;;;;17.40;3.97;;;6.90;99.90;;;;;;5072659;28;20402;-67
2022/11/24 07:02:58;;;;;;;16.90;4.50;;;6.90;99.90;;;;;;5063349;28;20035;-67
2022/11/24 07:05:24;;;;;;;20.23;3.65;;;7.00;99.90;;;;;;5068565;28;20036;-68
2022/11/24 07:07:49;;;;;;;23.23;6.65;;;7.00;99.90;;;;;;5091163;28;20047;-67
2022/11/24 07:10:15;;;;;;;17.98;4.47;;;7.00;99.90;;;;;;5072774;28;20045;-67
2022/11/24 07:12:41;;;;;;;20.58;4.88;;;7.10;99.90;;;;;;5062109;28;20041;-67
2022/11/24 07:15:08;;;;;;;17.08;3.33;;;7.10;99.90;;;;;;5063665;28;20782;-68
2022/11/24 07:17:38;;;;;;;23.85;4.78;;;7.10;99.90;;;;;;5067167;28;20077;-67
2022/11/24 07:20:05;;;;;;;22.50;4.72;;;7.20;99.90;;;;;;5072299;28;20090;-68
2022/11/24 07:22:31;;;;;;;19.95;4.53;;;7.20;99.90;;;;;;5067052;28;20565;-67
2022/11/24 07:24:57;;;;;;;17.63;4.30;;;7.20;99.90;;;;;;5069173;28;20032;-67
2022/11/24 07:27:22;;;;;;;17.48;4.20;;;7.30;99.90;;;;;;5072810;28;20040;-67
2022/11/24 07:29:48;;;;;;;22.08;4.40;;;7.30;99.90;;;;;;5073668;28;20028;-66
2022/11/24 07:32:13;;;;;;;22.90;4.55;;;7.30;99.90;;;;;;5075960;28;20040;-68
2022/11/24 07:34:39;;;;;;;17.77;4.25;;;7.30;99.90;;;;;;5069804;28;20457;-67
2022/11/24 07:37:05;;;;;;;17.30;4.50;;;7.30;99.90;;;;;;5066770;28;20037;-67
2022/11/24 07:39:31;;;;;;;15.20;3.97;;;7.40;99.90;;;;;;5064884;28;20050;-67
2022/11/24 07:41:58;;;;;;;21.30;3.83;;;7.40;99.90;;;;;;5072347;28;20051;-68
2022/11/24 07:44:24;;;;;;;18.42;4.47;;;7.40;99.90;;;;;;5067454;28;20041;-67
2022/11/24 07:46:50;;;;;;;22.83;4.63;;;7.40;99.90;;;;;;5064868;28;20621;-67
2022/11/24 07:49:16;;;;;;;21.15;4.35;;;7.40;99.90;;;;;;5073142;28;20040;-67
2022/11/24 07:51:42;;;;;;;17.20;3.95;;;7.40;99.90;;;;;;5075429;28;20036;-67
2022/11/24 07:54:08;;;;;;;20.52;4.78;;;7.50;99.90;;;;;;5087988;28;20073;-67
2022/11/24 07:56:34;;;;;;;17.40;4.50;;;7.50;99.90;;;;;;5070609;28;20063;-67
2022/11/24 07:59:00;;;;;;;19.48;4.18;;;7.50;99.90;;;;;;5061446;28;20040;-67
2022/11/24 08:01:26;;;;;;;20.08;4.30;;;7.50;99.90;;;;;;5061027;28;20083;-67
2022/11/24 08:03:51;;;;;;;25.33;5.20;;;7.50;99.90;;;;;;5057383;28;20076;-67
2022/11/24 08:06:18;;;;;;;19.73;4.07;;;7.50;99.90;;;;;;5067732;28;20131;-67
2022/11/24 08:08:44;;;;;;;25.25;4.75;;;7.50;99.90;;;;;;5064286;28;20025;-68
2022/11/24 08:11:15;;;;;;;18.15;4.75;;;7.50;99.90;;;;;;5066435;28;20054;-67
2022/11/24 08:13:41;;;;;;;15.50;3.90;;;7.50;99.90;;;;;;5060287;28;20029;-68
2022/11/24 08:16:17;;;;;;;19.55;4.10;;;7.50;99.90;;;;;;5068366;28;20621;-68
2022/11/24 08:18:48;;;;;;;17.23;4.97;;;7.50;99.90;;;;;;5060286;28;20051;-68
2022/11/24 08:21:13;;;;;;;17.87;5.03;;;7.60;99.90;;;;;;5052974;28;20037;-68
2022/11/24 08:23:40;;;;;;;18.15;4.78;;;7.60;99.90;;;;;;5070317;28;20127;-68
2022/11/24 08:26:09;;;;;;;17.08;4.63;;;7.60;99.90;;;;;;5073131;28;20048;-68
2022/11/24 08:28:36;;;;;;;16.30;3.78;;;7.70;99.90;;;;;;5067918;28;20044;-67
2022/11/24 08:31:07;;;;;;;17.05;4.22;;;7.80;99.90;;;;;;5059286;28;20055;-68
2022/11/24 08:33:33;;;;;;;13.70;4.05;;;7.80;99.90;;;;;;5065075;28;20024;-68
2022/11/24 08:36:07;;;;;;;15.32;4.38;;;7.80;99.90;;;;;;5059694;28;20048;-67
2022/11/24 08:38:33;;;;;;;11.82;3.80;;;7.90;99.90;;;;;;5059853;28;20040;-68
2022/11/24 08:41:03;;;;;;;14.82;3.90;;;7.90;99.90;;;;;;5065752;28;20059;-67
2022/11/24 08:43:29;;;;;;;14.98;3.55;;;7.90;99.90;;;;;;5064787;28;20405;-68
2022/11/24 08:45:58;;;;;;;13.07;3.58;;;8.00;99.90;;;;;;5068482;28;20041;-67
2022/11/24 08:48:24;;;;;;;16.85;4.50;;;8.00;99.90;;;;;;5068572;28;20063;-67
2022/11/24 08:50:50;;;;;;;15.85;4.30;;;8.10;99.90;;;;;;5061145;28;20074;-68
2022/11/24 08:53:16;;;;;;;11.63;3.03;;;8.10;99.90;;;;;;5066388;28;20058;-67
2022/11/24 08:55:41;;;;;;;10.88;3.30;;;8.10;99.90;;;;;;5066343;28;20094;-67
2022/11/24 08:58:07;;;;;;;11.65;4.05;;;8.20;99.90;;;;;;5062436;28;20066;-67
2022/11/24 09:00:32;;;;;;;8.85;2.60;;;8.30;99.90;;;;;;5062199;28;20044;-67
2022/11/24 09:02:58;;;;;;;9.85;3.38;;;8.30;99.90;;;;;;5065572;28;20036;-67
2022/11/24 09:05:24;;;;;;;12.38;3.42;;;8.40;99.90;;;;;;5062716;28;20037;-68
2022/11/24 09:07:50;;;;;;;10.88;3.28;;;8.50;99.90;;;;;;5065188;28;20044;-67
2022/11/24 09:10:16;;;;;;;10.57;3.47;;;8.50;99.90;;;;;;5069557;28;20501;-67
2022/11/24 09:12:46;;;;;;;12.85;3.75;;;8.50;99.90;;;;;;5069947;28;20033;-67
2022/11/24 09:15:15;;;;;;;11.40;3.92;;;8.60;99.90;;;;;;5065306;28;20060;-68
2022/11/24 09:17:40;;;;;;;11.82;3.38;;;8.60;99.90;;;;;;5069303;28;20104;-68
2022/11/24 09:20:06;;;;;;;11.77;3.38;;;8.70;99.90;;;;;;5061962;28;20194;-67
2022/11/24 09:22:32;;;;;;;11.60;3.40;;;8.70;99.90;;;;;;5070372;28;20048;-67
2022/11/24 09:24:57;;;;;;;10.40;3.38;;;8.80;99.90;;;;;;5069453;28;20041;-67
2022/11/24 09:27:23;;;;;;;9.98;3.35;;;8.70;99.90;;;;;;5077224;28;20040;-67
2022/11/24 09:29:49;;;;;;;9.90;3.35;;;8.80;99.90;;;;;;5077071;28;20054;-67
2022/11/24 09:32:15;;;;;;;12.90;3.20;;;8.90;99.90;;;;;;5065769;28;20068;-67
2022/11/24 09:34:41;;;;;;;8.60;3.13;;;8.90;99.90;;;;;;5064263;28;20037;-68
2022/11/24 09:37:06;;;;;;;8.40;3.13;;;9.00;99.90;;;;;;5064683;28;20505;-67
2022/11/24 09:39:32;;;;;;;6.90;2.90;;;9.00;99.90;;;;;;5086141;28;20044;-68
2022/11/24 09:42:13;;;;;;;10.02;2.95;;;9.00;99.90;;;;;;5072305;28;20450;-68
2022/11/24 09:44:57;;;;;;;9.48;3.08;;;9.00;99.90;;;;;;5062929;28;20048;-68
2022/11/24 09:47:43;;;;;;;6.78;3.00;;;9.00;99.90;;;;;;5086723;28;20115;-68
2022/11/24 09:50:15;;;;;;;7.20;2.65;;;9.10;99.90;;;;;;5068529;28;20059;-68
2022/11/24 09:52:43;;;;;;;8.15;2.95;;;9.10;99.90;;;;;;5054151;28;20037;-68
2022/11/24 09:55:28;;;;;;;6.20;2.88;;;9.10;99.90;;;;;;5065736;28;20040;-67
2022/11/24 09:58:11;;;;;;;9.63;2.67;;;9.20;99.90;;;;;;5067556;28;20063;-67
2022/11/24 10:00:37;;;;;;;10.40;3.38;;;9.20;99.90;;;;;;5058666;28;20159;-68
2022/11/24 10:03:04;;;;;;;7.30;3.10;;;9.30;99.90;;;;;;5079167;28;20062;-68
2022/11/24 10:05:34;;;;;;;6.35;3.38;;;9.30;99.90;;;;;;5070813;28;20420;-67
2022/11/24 10:11:03;;;;;;;12.23;3.63;;;9.40;99.90;;;;;;5070245;28;20049;-64
2022/11/24 10:14:02;;;;;;;8.70;3.47;;;9.50;99.90;;;;;;5070809;28;20067;-64
2022/11/24 10:16:31;;;;;;;9.00;3.55;;;9.50;99.90;;;;;;5074308;28;20127;-62
2022/11/24 10:19:14;;;;;;;8.65;3.70;;;9.50;99.90;;;;;;5068325;28;20037;-62
2022/11/24 10:22:33;;;;;;;7.68;3.47;;;9.50;99.90;;;;;;5057375;28;20078;-62
2022/11/24 10:25:21;;;;;;;6.97;3.95;;;9.50;99.90;;;;;;4963267;28;20412;-62
2022/11/24 10:27:54;;;;;;;8.82;4.45;;;9.60;99.90;;;;;;4972290;28;20125;-62
2022/11/24 10:30:22;;;;;;;7.95;3.63;;;9.60;99.90;;;;;;5024046;28;20132;-62
2022/11/24 10:33:16;;;;;;;11.43;4.00;;;9.50;99.90;;;;;;5051227;28;20032;-62
2022/11/24 10:35:55;;;;;;;10.93;4.30;;;9.60;99.90;;;;;;5052081;28;20587;-62
2022/11/24 10:38:40;;;;;;;7.28;4.75;;;9.60;99.90;;;;;;5060360;28;20399;-62
2022/11/24 10:41:22;;;;;;;9.95;4.90;;;9.60;99.90;;;;;;5055733;28;20037;-62
2022/11/24 10:43:49;;;;;;;7.45;4.35;;;9.70;99.90;;;;;;5059099;28;20458;-62
2022/11/24 10:46:28;;;;;;;9.05;4.35;;;9.70;99.90;;;;;;5052784;28;20045;-62
2022/11/24 10:49:03;;;;;;;9.02;4.90;;;9.80;99.90;;;;;;5050162;28;20041;-62
2022/11/24 10:52:00;;;;;;;10.00;4.97;;;9.90;99.90;;;;;;5047838;28;20049;-62
2022/11/24 10:54:27;;;;;;;11.57;5.00;;;9.90;99.90;;;;;;5032318;28;20051;-62
2022/11/24 10:56:54;;;;;;;9.48;4.75;;;9.90;99.90;;;;;;5033915;28;20037;-62
2022/11/24 10:59:28;;;;;;;10.68;5.07;;;9.90;99.90;;;;;;5042520;28;20036;-63
2022/11/24 11:01:54;;;;;;;9.48;5.25;;;9.90;99.90;;;;;;5044595;28;20674;-63
2022/11/24 11:04:31;;;;;;;8.32;5.28;;;9.90;99.90;;;;;;5053039;28;20048;-63
2022/11/24 11:07:26;;;;;;;10.18;5.03;;;9.90;99.90;;;;;;5033649;28;20041;-63
2022/11/24 11:10:16;;;;;;;10.82;5.85;;;9.90;99.90;;;;;;5027954;28;20128;-63
2022/11/24 11:12:42;;;;;;;13.38;5.35;;;9.90;99.90;;;;;;5048315;28;20047;-63
2022/11/24 11:15:35;;;;;;;9.57;5.60;;;9.80;99.90;;;;;;5060948;28;20033;-64
2022/11/24 11:18:00;;;;;;;11.82;5.75;;;10.00;99.90;;;;;;5046718;28;20128;-63
2022/11/24 11:20:33;;;;;;;9.52;5.80;;;10.00;99.90;;;;;;5051735;28;20119;-64
2022/11/24 11:23:26;;;;;;;10.70;5.50;;;10.00;99.90;;;;;;5056638;28;20040;-63
2022/11/24 11:26:24;;;;;;;8.55;5.15;;;10.10;99.90;;;;;;5043802;28;20051;-63
2022/11/24 11:29:07;;;;;;;11.50;5.63;;;10.20;99.90;;;;;;5049996;28;20033;-63
2022/11/24 11:31:34;;;;;;;10.65;6.43;;;10.20;99.90;;;;;;5051372;28;20387;-63
2022/11/24 11:34:09;;;;;;;10.63;5.85;;;10.20;99.90;;;;;;5047458;28;20037;-63
2022/11/24 11:36:55;;;;;;;10.15;6.05;;;10.30;99.90;;;;;;5050976;28;20040;-63
2022/11/24 11:39:37;;;;;;;12.18;5.75;;;10.30;99.90;;;;;;5052834;28;20090;-63
2022/11/24 11:42:23;;;;;;;11.30;5.80;;;10.40;99.90;;;;;;5045049;28;20044;-63
2022/11/24 11:45:09;;;;;;;14.80;5.35;;;10.40;99.90;;;;;;5051222;28;20036;-63
2022/11/24 11:48:11;;;;;;;10.77;5.57;;;10.50;99.90;;;;;;5051968;28;20045;-63
2022/11/24 11:51:02;;;;;;;10.43;6.78;;;10.50;99.90;;;;;;5045878;28;20084;-63
2022/11/24 11:53:44;;;;;;;7.85;5.50;;;10.60;99.90;;;;;;5028934;28;20048;-64
2022/11/24 11:56:21;;;;;;;13.05;5.95;;;10.60;99.90;;;;;;5050452;28;20053;-63
2022/11/24 11:59:05;;;;;;;12.15;6.07;;;10.60;99.90;;;;;;5049990;28;20051;-63
2022/11/24 12:01:39;;;;;;;11.15;5.70;;;10.60;99.90;;;;;;5051396;28;20047;-63
2022/11/24 12:04:22;;;;;;;10.25;5.97;;;10.70;99.90;;;;;;5054606;28;20063;-64
2022/11/24 12:07:15;;;;;;;15.55;6.40;;;10.70;99.90;;;;;;5051011;28;20092;-64
2022/11/24 12:09:51;;;;;;;14.27;6.00;;;10.70;99.90;;;;;;5042349;28;20033;-64
2022/11/24 12:12:38;;;;;;;13.73;5.43;;;10.80;99.90;;;;;;5048460;28;20502;-64
2022/11/24 12:15:25;;;;;;;17.48;6.55;;;10.80;99.90;;;;;;5051397;28;20036;-63
2022/11/24 12:18:01;;;;;;;13.55;6.43;;;10.80;99.90;;;;;;5048341;28;20509;-63
2022/11/24 12:20:49;;;;;;;12.52;5.78;;;10.90;99.90;;;;;;5047119;28;20044;-63
2022/11/24 12:23:52;;;;;;;12.13;6.00;;;10.90;99.90;;;;;;5046012;28;20128;-64
2022/11/24 12:26:44;;;;;;;13.30;6.20;;;11.00;99.90;;;;;;5049995;28;20132;-64
2022/11/24 12:29:30;;;;;;;17.05;7.00;;;11.10;99.90;;;;;;5060763;28;20490;-63
2022/11/24 12:32:15;;;;;;;11.77;6.15;;;11.10;99.90;;;;;;5059538;28;20029;-63
2022/11/24 12:34:54;;;;;;;14.77;5.45;;;11.20;99.90;;;;;;5054246;28;20033;-64
2022/11/24 12:37:20;;;;;;;13.55;5.55;;;11.20;99.90;;;;;;5053615;28;20471;-63
2022/11/24 12:39:52;;;;;;;11.27;5.35;;;11.30;99.90;;;;;;5049736;28;20131;-63
2022/11/24 12:42:36;;;;;;;16.92;6.13;;;11.30;99.90;;;;;;5051678;28;20079;-63
2022/11/24 12:45:07;;;;;;;16.02;6.15;;;11.50;99.90;;;;;;5048128;28;20048;-64
2022/11/24 12:47:45;;;;;;;13.55;6.40;;;11.50;99.90;;;;;;5047809;28;20490;-63
2022/11/24 12:50:17;;;;;;;16.05;6.53;;;11.60;99.90;;;;;;5049483;28;20037;-64
2022/11/24 12:52:49;;;;;;;16.90;6.63;;;11.70;99.90;;;;;;5055925;28;20029;-63
2022/11/24 12:55:18;;;;;;;20.17;6.43;;;11.70;99.90;;;;;;5049892;28;20441;-64
2022/11/24 12:57:54;;;;;;;12.27;5.75;;;11.70;99.90;;;;;;5050353;28;20223;-64
2022/11/24 13:00:22;;;;;;;13.43;5.65;;;11.70;99.90;;;;;;5051980;28;20041;-63
2022/11/24 13:03:27;;;;;;;17.42;5.97;;;11.80;99.90;;;;;;5051327;28;20532;-64
2022/11/24 13:06:01;;;;;;;13.23;5.65;;;11.90;99.90;;;;;;5043373;28;20052;-64
2022/11/24 13:08:28;;;;;;;12.45;4.65;;;12.00;99.90;;;;;;5050407;28;20048;-64
2022/11/24 13:11:19;;;;;;;11.35;4.88;;;12.10;99.90;;;;;;5049326;28;20041;-63
2022/11/24 13:14:05;;;;;;;10.32;4.90;;;12.20;99.90;;;;;;5048738;28;20079;-63